Time,TemperatureF,DewpointF,PressureIn,WindDirection,WindDirectionDegrees,WindSpeedMPH,WindSpeedGustMPH,Humidity,HourlyPrecipIn,Conditions,Clouds,dailyrainin,SoftwareType,DateUTC
2013-02-18 00:00:00,13.6,-2.0,29.73,WNW,282,0.0,12.0,49,0.00,,CLR,0.00,VWS V14.01,2013-02-18 05:00:00,
2013-02-18 00:01:00,13.6,-2.0,29.73,WSW,251,3.0,8.0,49,0.00,,CLR,0.00,VWS V14.01,2013-02-18 05:01:00,
2013-02-18 00:02:00,13.6,-2.0,29.73,SW,226,6.0,11.0,49,0.00,,CLR,0.00,VWS V14.01,2013-02-18 05:02:00,
2013-02-18 00:07:00,13.6,-2.0,29.73,NW,308,4.0,7.0,49,0.00,,CLR,0.00,VWS V14.01,2013-02-18 05:07:00,
2013-02-18 00:12:00,13.6,-2.0,29.73,NE,38,1.0,6.0,49,0.00,,CLR,0.00,VWS V14.01,2013-02-18 05:12:00,
2013-02-18 00:18:00,13.6,-1.6,29.74,North,349,7.0,9.0,50,0.00,,CLR,0.00,VWS V14.01,2013-02-18 05:18:00,
2013-02-18 00:23:00,13.5,-2.1,29.74,West,267,1.0,11.0,49,0.00,,CLR,0.00,VWS V14.01,2013-02-18 05:23:00,
2013-02-18 00:28:00,13.5,-2.5,29.74,WNW,296,6.0,15.0,48,0.00,,CLR,0.00,VWS V14.01,2013-02-18 05:28:00,
2013-02-18 00:33:00,13.5,-2.1,29.75,WNW,285,6.0,6.0,49,0.00,,CLR,0.00,VWS V14.01,2013-02-18 05:33:00,
2013-02-18 00:38:00,13.5,-2.1,29.75,NNW,329,4.0,7.0,49,0.00,,CLR,0.00,VWS V14.01,2013-02-18 05:38:00,
2013-02-18 00:43:00,13.5,-2.1,29.75,West,263,3.0,5.0,49,0.00,,CLR,0.00,VWS V14.01,2013-02-18 05:43:00,
2013-02-18 00:48:00,13.5,-2.1,29.75,NNW,346,2.0,17.0,49,0.00,,CLR,0.00,VWS V14.01,2013-02-18 05:48:00,
2013-02-18 00:53:00,13.5,-2.1,29.75,North,3,3.0,6.0,49,0.00,,CLR,0.00,VWS V14.01,2013-02-18 05:53:00,
2013-02-18 00:58:00,13.5,-1.7,29.75,SE,136,1.0,12.0,50,0.00,,CLR,0.00,VWS V14.01,2013-02-18 05:58:00,
2013-02-18 01:03:00,13.3,-2.3,29.75,SW,223,4.0,10.0,49,0.00,,CLR,0.00,VWS V14.01,2013-02-18 06:03:00,
2013-02-18 01:08:00,13.3,-2.3,29.75,WSW,239,11.0,11.0,49,0.00,,CLR,0.00,VWS V14.01,2013-02-18 06:08:00,
2013-02-18 01:13:00,13.3,-2.7,29.75,West,275,6.0,10.0,48,0.00,,CLR,0.00,VWS V14.01,2013-02-18 06:13:00,
2013-02-18 01:18:00,13.3,-2.7,29.76,North,7,2.0,6.0,48,0.00,,CLR,0.00,VWS V14.01,2013-02-18 06:18:00,
2013-02-18 01:23:00,13.3,-2.7,29.76,North,354,5.0,7.0,48,0.00,,CLR,0.00,VWS V14.01,2013-02-18 06:23:00,
2013-02-18 01:28:00,13.3,-2.7,29.76,North,350,3.0,13.0,48,0.00,,CLR,0.00,VWS V14.01,2013-02-18 06:28:00,
2013-02-18 01:33:00,13.3,-2.7,29.76,NW,323,0.0,17.0,48,0.00,,CLR,0.00,VWS V14.01,2013-02-18 06:33:00,
2013-02-18 01:38:00,13.3,-2.7,29.76,North,359,3.0,5.0,48,0.00,,CLR,0.00,VWS V14.01,2013-02-18 06:38:00,
2013-02-18 01:43:00,13.3,-2.7,29.76,NW,315,5.0,14.0,48,0.00,,CLR,0.00,VWS V14.01,2013-02-18 06:43:00,
2013-02-18 01:49:00,13.3,-2.7,29.76,NW,320,8.0,13.0,48,0.00,,CLR,0.00,VWS V14.01,2013-02-18 06:49:00,
2013-02-18 01:54:00,13.3,-2.7,29.76,SE,145,0.0,12.0,48,0.00,,CLR,0.00,VWS V14.01,2013-02-18 06:54:00,
2013-02-18 01:59:00,13.1,-3.3,29.76,NNE,14,4.0,11.0,47,0.00,,CLR,0.00,VWS V14.01,2013-02-18 06:59:00,
2013-02-18 02:04:00,13.3,-3.2,29.77,WNW,296,5.0,11.0,47,0.00,,CLR,0.00,VWS V14.01,2013-02-18 07:04:00,
2013-02-18 02:09:00,13.1,-2.9,29.77,WSW,240,5.0,11.0,48,0.00,,CLR,0.00,VWS V14.01,2013-02-18 07:09:00,
2013-02-18 02:14:00,13.1,-2.9,29.77,WNW,292,2.0,8.0,48,0.00,,CLR,0.00,VWS V14.01,2013-02-18 07:14:00,
2013-02-18 02:19:00,13.1,-2.9,29.78,NW,308,2.0,7.0,48,0.00,,CLR,0.00,VWS V14.01,2013-02-18 07:19:00,
2013-02-18 02:24:00,13.1,-3.3,29.78,WNW,282,8.0,8.0,47,0.00,,CLR,0.00,VWS V14.01,2013-02-18 07:24:00,
2013-02-18 02:29:00,13.1,-2.9,29.78,West,260,5.0,6.0,48,0.00,,CLR,0.00,VWS V14.01,2013-02-18 07:29:00,
2013-02-18 02:34:00,13.1,-3.3,29.78,NW,318,5.0,8.0,47,0.00,,CLR,0.00,VWS V14.01,2013-02-18 07:34:00,
2013-02-18 02:39:00,12.9,-3.5,29.78,NW,306,5.0,10.0,47,0.00,,CLR,0.00,VWS V14.01,2013-02-18 07:39:00,
2013-02-18 02:44:00,12.9,-3.5,29.78,WNW,296,0.0,7.0,47,0.00,,CLR,0.00,VWS V14.01,2013-02-18 07:44:00,
2013-02-18 02:49:00,12.9,-4.0,29.78,NW,306,2.0,17.0,46,0.00,,CLR,0.00,VWS V14.01,2013-02-18 07:49:00,
2013-02-18 02:54:00,13.1,-3.3,29.78,West,268,5.0,7.0,47,0.00,,CLR,0.00,VWS V14.01,2013-02-18 07:54:00,
2013-02-18 03:00:00,12.9,-4.0,29.78,North,350,5.0,11.0,46,0.00,,CLR,0.00,VWS V14.01,2013-02-18 08:00:00,
2013-02-18 03:05:00,13.1,-3.3,29.79,WSW,256,13.0,13.0,47,0.00,,CLR,0.00,VWS V14.01,2013-02-18 08:05:00,
2013-02-18 03:10:00,13.1,-3.3,29.79,West,264,5.0,11.0,47,0.00,,CLR,0.00,VWS V14.01,2013-02-18 08:10:00,
2013-02-18 03:15:00,12.9,-3.5,29.80,NNE,14,1.0,13.0,47,0.00,,CLR,0.00,VWS V14.01,2013-02-18 08:15:00,
2013-02-18 03:20:00,12.9,-3.1,29.80,North,4,9.0,10.0,48,0.00,,CLR,0.00,VWS V14.01,2013-02-18 08:20:00,
2013-02-18 03:25:00,12.9,-3.5,29.80,WSW,247,10.0,17.0,47,0.00,,CLR,0.00,VWS V14.01,2013-02-18 08:25:00,
2013-02-18 03:30:00,12.9,-3.5,29.80,West,274,11.0,20.0,47,0.00,,CLR,0.00,VWS V14.01,2013-02-18 08:30:00,
2013-02-18 03:35:00,12.9,-3.5,29.80,SW,236,10.0,12.0,47,0.00,,CLR,0.00,VWS V14.01,2013-02-18 08:35:00,
2013-02-18 03:40:00,12.9,-3.5,29.80,WNW,295,8.0,11.0,47,0.00,,CLR,0.00,VWS V14.01,2013-02-18 08:40:00,
2013-02-18 03:45:00,12.9,-3.1,29.81,NNW,332,11.0,21.0,48,0.00,,CLR,0.00,VWS V14.01,2013-02-18 08:45:00,
2013-02-18 03:50:00,12.9,-3.1,29.81,WNW,292,3.0,3.0,48,0.00,,CLR,0.00,VWS V14.01,2013-02-18 08:50:00,
2013-02-18 03:55:00,12.8,-3.6,29.81,NNW,335,0.0,10.0,47,0.00,,CLR,0.00,VWS V14.01,2013-02-18 08:55:00,
2013-02-18 04:01:00,12.8,-3.6,29.82,SW,219,2.0,13.0,47,0.00,,CLR,0.00,VWS V14.01,2013-02-18 09:01:00,
2013-02-18 04:06:00,12.8,-3.2,29.82,West,264,4.0,5.0,48,0.00,,CLR,0.00,VWS V14.01,2013-02-18 09:06:00,
2013-02-18 04:11:00,12.8,-3.2,29.82,East,92,0.0,8.0,48,0.00,,CLR,0.00,VWS V14.01,2013-02-18 09:11:00,
2013-02-18 04:16:00,12.8,-3.2,29.83,WSW,247,3.0,8.0,48,0.00,,CLR,0.00,VWS V14.01,2013-02-18 09:16:00,
2013-02-18 04:21:00,12.6,-3.4,29.83,WSW,248,0.0,6.0,48,0.00,,CLR,0.00,VWS V14.01,2013-02-18 09:21:00,
2013-02-18 04:26:00,12.6,-3.4,29.83,WSW,257,5.0,8.0,48,0.00,,CLR,0.00,VWS V14.01,2013-02-18 09:26:00,
2013-02-18 04:31:00,12.6,-2.9,29.83,NW,305,0.0,8.0,49,0.00,,CLR,0.00,VWS V14.01,2013-02-18 09:31:00,
2013-02-18 04:36:00,12.6,-2.9,29.83,South,181,2.0,6.0,49,0.00,,CLR,0.00,VWS V14.01,2013-02-18 09:36:00,
2013-02-18 04:41:00,12.6,-2.9,29.83,WNW,289,0.0,4.0,49,0.00,,CLR,0.00,VWS V14.01,2013-02-18 09:41:00,
2013-02-18 04:46:00,12.4,-3.1,29.84,WSW,244,2.0,3.0,49,0.00,,CLR,0.00,VWS V14.01,2013-02-18 09:46:00,
2013-02-18 04:52:00,12.4,-3.1,29.84,WNW,284,2.0,7.0,49,0.00,,CLR,0.00,VWS V14.01,2013-02-18 09:52:00,
2013-02-18 04:57:00,12.4,-3.1,29.84,North,0,0.0,7.0,49,0.00,,CLR,0.00,VWS V14.01,2013-02-18 09:57:00,
2013-02-18 05:02:00,12.3,-3.2,29.86,West,270,2.0,6.0,49,0.00,,CLR,0.00,VWS V14.01,2013-02-18 10:02:00,
2013-02-18 05:07:00,12.3,-3.2,29.86,West,270,8.0,11.0,49,0.00,,CLR,0.00,VWS V14.01,2013-02-18 10:07:00,
2013-02-18 05:12:00,12.4,-3.1,29.86,North,8,2.0,11.0,49,0.00,,CLR,0.00,VWS V14.01,2013-02-18 10:12:00,
2013-02-18 05:17:00,12.4,-3.1,29.87,West,268,2.0,7.0,49,0.00,,CLR,0.00,VWS V14.01,2013-02-18 10:17:00,
2013-02-18 05:22:00,12.3,-2.8,29.87,WSW,240,1.0,3.0,50,0.00,,CLR,0.00,VWS V14.01,2013-02-18 10:22:00,
2013-02-18 05:27:00,12.3,-2.8,29.87,WSW,253,1.0,11.0,50,0.00,,CLR,0.00,VWS V14.01,2013-02-18 10:27:00,
2013-02-18 05:32:00,12.3,-3.2,29.88,SE,128,0.0,3.0,49,0.00,,CLR,0.00,VWS V14.01,2013-02-18 10:32:00,
2013-02-18 05:37:00,12.3,-3.2,29.88,NNE,20,6.0,6.0,49,0.00,,CLR,0.00,VWS V14.01,2013-02-18 10:37:00,
2013-02-18 05:43:00,12.3,-3.2,29.88,WNW,288,0.0,7.0,49,0.00,,CLR,0.00,VWS V14.01,2013-02-18 10:43:00,
2013-02-18 05:48:00,12.3,-3.2,29.89,NNE,32,3.0,5.0,49,0.00,,CLR,0.00,VWS V14.01,2013-02-18 10:48:00,
2013-02-18 05:53:00,12.3,-3.2,29.89,North,353,3.0,3.0,49,0.00,,CLR,0.00,VWS V14.01,2013-02-18 10:53:00,
2013-02-18 05:58:00,12.3,-3.2,29.89,East,92,2.0,4.0,49,0.00,,CLR,0.00,VWS V14.01,2013-02-18 10:58:00,
2013-02-18 06:03:00,12.3,-3.2,29.90,West,281,2.0,8.0,49,0.00,,CLR,0.00,VWS V14.01,2013-02-18 11:03:00,
2013-02-18 06:08:00,12.1,-3.4,29.90,South,178,0.0,2.0,49,0.00,,CLR,0.00,VWS V14.01,2013-02-18 11:08:00,
2013-02-18 06:13:00,12.1,-3.4,29.90,North,0,0.0,6.0,49,0.00,,CLR,0.00,VWS V14.01,2013-02-18 11:13:00,
2013-02-18 06:18:00,12.1,-3.4,29.91,South,182,2.0,3.0,49,0.00,,CLR,0.00,VWS V14.01,2013-02-18 11:18:00,
2013-02-18 06:23:00,12.1,-3.4,29.91,WNW,288,0.0,3.0,49,0.00,,CLR,0.00,VWS V14.01,2013-02-18 11:23:00,
2013-02-18 06:29:00,11.9,-3.6,29.91,WNW,288,2.0,6.0,49,0.00,,CLR,0.00,VWS V14.01,2013-02-18 11:29:00,
2013-02-18 06:34:00,11.9,-3.6,29.92,NNW,340,0.0,6.0,49,0.00,,CLR,0.00,VWS V14.01,2013-02-18 11:34:00,
2013-02-18 06:39:00,11.9,-3.6,29.92,West,274,1.0,8.0,49,0.00,,CLR,0.00,VWS V14.01,2013-02-18 11:39:00,
2013-02-18 06:44:00,11.9,-3.6,29.92,WNW,298,0.0,8.0,49,0.00,,CLR,0.00,VWS V14.01,2013-02-18 11:44:00,
2013-02-18 06:49:00,11.7,-3.8,29.94,NNW,329,2.0,8.0,49,0.00,,CLR,0.00,VWS V14.01,2013-02-18 11:49:00,
2013-02-18 06:54:00,11.7,-3.8,29.94,NW,318,0.0,6.0,49,0.00,,CLR,0.00,VWS V14.01,2013-02-18 11:54:00,
2013-02-18 06:59:00,11.7,-3.3,29.94,North,0,2.0,6.0,50,0.00,,CLR,0.00,VWS V14.01,2013-02-18 11:59:00,
2013-02-18 07:04:00,11.6,-3.4,29.94,NNW,342,0.0,13.0,50,0.00,,CLR,0.00,VWS V14.01,2013-02-18 12:04:00,
2013-02-18 07:09:00,11.6,-3.4,29.94,SSW,200,0.0,11.0,50,0.00,,CLR,0.00,VWS V14.01,2013-02-18 12:09:00,
2013-02-18 07:14:00,11.7,-3.3,29.94,North,359,3.0,7.0,50,0.00,,CLR,0.00,VWS V14.01,2013-02-18 12:14:00,
2013-02-18 07:19:00,11.9,-3.2,29.96,West,278,6.0,11.0,50,0.00,,CLR,0.00,VWS V14.01,2013-02-18 12:19:00,
2013-02-18 07:24:00,12.1,-3.4,29.96,North,0,0.0,5.0,49,0.00,,CLR,0.00,VWS V14.01,2013-02-18 12:24:00,
2013-02-18 07:30:00,12.3,-3.2,29.96,West,275,2.0,5.0,49,0.00,,CLR,0.00,VWS V14.01,2013-02-18 12:30:00,
2013-02-18 07:35:00,12.6,-2.9,29.97,North,359,0.0,2.0,49,0.00,,CLR,0.00,VWS V14.01,2013-02-18 12:35:00,
2013-02-18 07:40:00,12.9,-3.1,29.97,NNW,329,0.0,8.0,48,0.00,,CLR,0.00,VWS V14.01,2013-02-18 12:40:00,
2013-02-18 07:45:00,13.1,-2.9,29.98,NNE,13,0.0,2.0,48,0.00,,CLR,0.00,VWS V14.01,2013-02-18 12:45:00,
2013-02-18 07:50:00,13.5,-3.0,29.98,SW,217,0.0,3.0,47,0.00,,CLR,0.00,VWS V14.01,2013-02-18 12:50:00,
2013-02-18 07:55:00,13.8,-2.7,29.98,SW,227,0.0,3.0,47,0.00,,CLR,0.00,VWS V14.01,2013-02-18 12:55:00,
2013-02-18 08:00:00,14.1,-2.9,29.98,WNW,294,0.0,3.0,46,0.00,,CLR,0.00,VWS V14.01,2013-02-18 13:00:00,
2013-02-18 08:05:00,14.6,-2.4,29.98,NW,318,2.0,5.0,46,0.00,,CLR,0.00,VWS V14.01,2013-02-18 13:05:00,
2013-02-18 08:10:00,14.8,-2.7,29.98,SSE,151,6.0,6.0,45,0.00,,CLR,0.00,VWS V14.01,2013-02-18 13:10:00,
2013-02-18 08:16:00,14.9,-2.6,29.99,SW,224,3.0,5.0,45,0.00,,CLR,0.00,VWS V14.01,2013-02-18 13:16:00,
2013-02-18 08:21:00,15.2,-2.8,29.99,WSW,247,1.0,11.0,44,0.00,,CLR,0.00,VWS V14.01,2013-02-18 13:21:00,
2013-02-18 08:26:00,15.4,-2.6,29.99,NW,305,2.0,10.0,44,0.00,,CLR,0.00,VWS V14.01,2013-02-18 13:26:00,
2013-02-18 08:31:00,15.7,-2.8,30.00,North,0,2.0,6.0,43,0.00,,CLR,0.00,VWS V14.01,2013-02-18 13:31:00,
2013-02-18 08:36:00,16.1,-2.9,30.00,WNW,295,5.0,10.0,42,0.00,,CLR,0.00,VWS V14.01,2013-02-18 13:36:00,
2013-02-18 08:41:00,16.4,-2.7,30.00,WNW,298,3.0,7.0,42,0.00,,CLR,0.00,VWS V14.01,2013-02-18 13:41:00,
2013-02-18 08:46:00,16.4,-2.7,29.99,SSW,200,0.0,6.0,42,0.00,,CLR,0.00,VWS V14.01,2013-02-18 13:46:00,
2013-02-18 08:51:00,16.7,-1.9,29.99,West,278,3.0,7.0,43,0.00,,CLR,0.00,VWS V14.01,2013-02-18 13:51:00,
2013-02-18 08:56:00,16.9,-2.7,29.99,ESE,117,2.0,10.0,41,0.00,,CLR,0.00,VWS V14.01,2013-02-18 13:56:00,
2013-02-18 09:01:00,17.7,-1.5,29.99,WNW,285,1.0,2.0,42,0.00,,CLR,0.00,VWS V14.01,2013-02-18 14:01:00,
2013-02-18 09:06:00,18.1,-2.2,29.99,North,352,0.0,7.0,40,0.00,,CLR,0.00,VWS V14.01,2013-02-18 14:06:00,
2013-02-18 09:11:00,18.1,-1.6,29.99,North,359,5.0,6.0,41,0.00,,CLR,0.00,VWS V14.01,2013-02-18 14:11:00,
2013-02-18 09:16:00,18.3,-2.0,30.00,WSW,246,3.0,5.0,40,0.00,,CLR,0.00,VWS V14.01,2013-02-18 14:16:00,
2013-02-18 09:21:00,18.6,-2.2,30.00,North,0,2.0,8.0,39,0.00,,CLR,0.00,VWS V14.01,2013-02-18 14:21:00,
2013-02-18 09:26:00,18.9,-2.0,30.00,West,278,6.0,8.0,39,0.00,,CLR,0.00,VWS V14.01,2013-02-18 14:26:00,
2013-02-18 09:31:00,19.1,-2.3,30.00,NNW,329,7.0,11.0,38,0.00,,CLR,0.00,VWS V14.01,2013-02-18 14:31:00,
2013-02-18 09:36:00,19.4,-1.0,30.00,NNW,347,2.0,3.0,40,0.00,,CLR,0.00,VWS V14.01,2013-02-18 14:36:00,
2013-02-18 09:41:00,19.5,-2.5,30.00,NNE,30,0.0,10.0,37,0.00,,CLR,0.00,VWS V14.01,2013-02-18 14:41:00,
2013-02-18 09:46:00,19.9,-2.2,30.00,West,278,4.0,7.0,37,0.00,,CLR,0.00,VWS V14.01,2013-02-18 14:46:00,
2013-02-18 09:52:00,20.0,-2.1,30.00,NW,308,0.0,2.0,37,0.00,,CLR,0.00,VWS V14.01,2013-02-18 14:52:00,
2013-02-18 09:57:00,20.0,-2.7,30.00,NW,309,2.0,9.0,36,0.00,,CLR,0.00,VWS V14.01,2013-02-18 14:57:00,
2013-02-18 10:02:00,19.9,-2.7,29.99,East,97,3.0,7.0,36,0.00,,CLR,0.00,VWS V14.01,2013-02-18 15:02:00,
2013-02-18 10:07:00,20.2,-2.5,29.99,South,191,6.0,10.0,36,0.00,,CLR,0.00,VWS V14.01,2013-02-18 15:07:00,
2013-02-18 10:12:00,20.3,-3.0,29.99,NNW,332,6.0,16.0,35,0.00,,CLR,0.00,VWS V14.01,2013-02-18 15:12:00,
2013-02-18 10:17:00,20.8,-1.4,29.99,West,278,0.0,3.0,37,0.00,,CLR,0.00,VWS V14.01,2013-02-18 15:17:00,
2013-02-18 10:22:00,21.3,-0.9,29.99,WNW,289,10.0,11.0,37,0.00,,CLR,0.00,VWS V14.01,2013-02-18 15:22:00,
2013-02-18 10:27:00,21.8,-1.6,29.99,NW,323,2.0,8.0,35,0.00,,CLR,0.00,VWS V14.01,2013-02-18 15:27:00,
2013-02-18 10:32:00,22.1,-1.4,29.99,WNW,296,10.0,10.0,35,0.00,,CLR,0.00,VWS V14.01,2013-02-18 15:32:00,
2013-02-18 10:37:00,22.1,-1.4,29.99,South,185,3.0,7.0,35,0.00,,CLR,0.00,VWS V14.01,2013-02-18 15:37:00,
2013-02-18 10:43:00,22.4,-3.0,29.99,NNW,343,4.0,4.0,32,0.00,,CLR,0.00,VWS V14.01,2013-02-18 15:43:00,
2013-02-18 10:48:00,23.0,-3.1,29.99,WNW,294,7.0,7.0,31,0.00,,CLR,0.00,VWS V14.01,2013-02-18 15:48:00,
2013-02-18 10:53:00,23.3,-4.2,29.99,North,0,0.0,7.0,29,0.00,,CLR,0.00,VWS V14.01,2013-02-18 15:53:00,
2013-02-18 10:58:00,23.6,-3.3,29.99,South,171,2.0,7.0,30,0.00,,CLR,0.00,VWS V14.01,2013-02-18 15:58:00,
2013-02-18 11:03:00,23.6,-5.5,29.99,West,281,0.0,10.0,27,0.00,,CLR,0.00,VWS V14.01,2013-02-18 16:03:00,
2013-02-18 11:08:00,23.8,-3.8,29.99,SW,219,4.0,13.0,29,0.00,,CLR,0.00,VWS V14.01,2013-02-18 16:08:00,
2013-02-18 11:13:00,24.5,-3.2,29.99,North,357,3.0,7.0,29,0.00,,CLR,0.00,VWS V14.01,2013-02-18 16:13:00,
2013-02-18 11:18:00,24.8,-2.2,30.00,South,176,4.0,9.0,30,0.00,,CLR,0.00,VWS V14.01,2013-02-18 16:18:00,
2013-02-18 11:23:00,24.7,-4.5,30.00,SSE,147,2.0,10.0,27,0.00,,CLR,0.00,VWS V14.01,2013-02-18 16:23:00,
2013-02-18 11:28:00,24.2,-4.9,30.00,West,277,1.0,19.0,27,0.00,,CLR,0.00,VWS V14.01,2013-02-18 16:28:00,
2013-02-18 11:34:00,24.1,-5.8,30.00,SW,230,1.0,14.0,26,0.00,,CLR,0.00,VWS V14.01,2013-02-18 16:34:00,
2013-02-18 11:39:00,25.0,-4.2,30.00,WNW,288,3.0,6.0,27,0.00,,CLR,0.00,VWS V14.01,2013-02-18 16:39:00,
2013-02-18 11:44:00,24.8,-4.4,30.00,NW,325,2.0,10.0,27,0.00,,CLR,0.00,VWS V14.01,2013-02-18 16:44:00,
2013-02-18 11:49:00,24.8,-4.4,30.00,West,260,6.0,11.0,27,0.00,,CLR,0.00,VWS V14.01,2013-02-18 16:49:00,
2013-02-18 11:54:00,24.8,-6.0,30.00,North,3,6.0,17.0,25,0.00,,CLR,0.00,VWS V14.01,2013-02-18 16:54:00,
2013-02-18 11:59:00,25.3,-4.8,30.00,NW,312,1.0,11.0,26,0.00,,CLR,0.00,VWS V14.01,2013-02-18 16:59:00,
2013-02-18 12:04:00,25.3,-4.8,30.01,West,271,5.0,18.0,26,0.00,,CLR,0.00,VWS V14.01,2013-02-18 17:04:00,
2013-02-18 12:09:00,25.4,-4.7,30.01,West,281,6.0,7.0,26,0.00,,CLR,0.00,VWS V14.01,2013-02-18 17:09:00,
2013-02-18 12:15:00,25.7,-3.6,30.01,SW,227,0.0,11.0,27,0.00,,CLR,0.00,VWS V14.01,2013-02-18 17:15:00,
2013-02-18 12:20:00,25.6,-5.3,30.01,West,267,7.0,12.0,25,0.00,,CLR,0.00,VWS V14.01,2013-02-18 17:20:00,
2013-02-18 12:25:00,25.8,-6.0,30.01,NNW,343,4.0,13.0,24,0.00,,CLR,0.00,VWS V14.01,2013-02-18 17:25:00,
2013-02-18 12:30:00,25.4,-6.3,30.00,WSW,239,2.0,16.0,24,0.00,,CLR,0.00,VWS V14.01,2013-02-18 17:30:00,
2013-02-18 12:36:00,25.6,-6.2,30.00,West,272,0.0,9.0,24,0.00,,CLR,0.00,VWS V14.01,2013-02-18 17:36:00,
2013-02-18 12:41:00,26.0,-5.0,30.00,North,357,6.0,13.0,25,0.00,,CLR,0.00,VWS V14.01,2013-02-18 17:41:00,
2013-02-18 12:46:00,26.3,-3.9,30.00,SE,145,4.0,14.0,26,0.00,,CLR,0.00,VWS V14.01,2013-02-18 17:46:00,
2013-02-18 12:51:00,26.0,-5.8,30.00,WNW,292,1.0,18.0,24,0.00,,CLR,0.00,VWS V14.01,2013-02-18 17:51:00,
2013-02-18 12:56:00,26.3,-5.6,30.00,NW,306,3.0,8.0,24,0.00,,CLR,0.00,VWS V14.01,2013-02-18 17:56:00,
2013-02-18 13:01:00,26.1,-4.9,30.00,SW,232,6.0,10.0,25,0.00,,CLR,0.00,VWS V14.01,2013-02-18 18:01:00,
2013-02-18 13:06:00,26.4,-4.6,30.00,NW,318,3.0,7.0,25,0.00,,CLR,0.00,VWS V14.01,2013-02-18 18:06:00,
2013-02-18 13:12:00,26.9,-5.1,30.00,NNE,21,5.0,12.0,24,0.00,,CLR,0.00,VWS V14.01,2013-02-18 18:12:00,
2013-02-18 13:17:00,27.2,-5.7,30.00,NNW,340,6.0,11.0,23,0.00,,CLR,0.00,VWS V14.01,2013-02-18 18:17:00,
2013-02-18 13:22:00,26.7,-5.2,30.00,NW,309,6.0,13.0,24,0.00,,CLR,0.00,VWS V14.01,2013-02-18 18:22:00,
2013-02-18 13:27:00,27.0,-4.1,30.00,SSW,209,2.0,2.0,25,0.00,,CLR,0.00,VWS V14.01,2013-02-18 18:27:00,
2013-02-18 13:33:00,27.6,-2.8,30.00,North,359,1.0,6.0,26,0.00,,CLR,0.00,VWS V14.01,2013-02-18 18:33:00,
2013-02-18 13:38:00,27.8,-3.4,30.00,North,359,1.0,6.0,25,0.00,,CLR,0.00,VWS V14.01,2013-02-18 18:38:00,
2013-02-18 13:43:00,27.6,-4.5,30.00,South,178,8.0,12.0,24,0.00,,CLR,0.00,VWS V14.01,2013-02-18 18:43:00,
2013-02-18 13:48:00,27.3,-3.9,30.00,SW,233,1.0,5.0,25,0.00,,CLR,0.00,VWS V14.01,2013-02-18 18:48:00,
2013-02-18 13:53:00,27.6,-3.6,30.00,NW,311,3.0,13.0,25,0.00,,CLR,0.00,VWS V14.01,2013-02-18 18:53:00,
2013-02-18 13:59:00,27.8,-4.3,30.00,North,0,3.0,8.0,24,0.00,,CLR,0.00,VWS V14.01,2013-02-18 18:59:00,
2013-02-18 14:04:00,27.6,-2.8,30.00,NE,48,2.0,7.0,26,0.00,,CLR,0.00,VWS V14.01,2013-02-18 19:04:00,
2013-02-18 14:09:00,27.6,-4.5,30.00,NNE,25,1.0,8.0,24,0.00,,CLR,0.00,VWS V14.01,2013-02-18 19:09:00,
2013-02-18 14:14:00,27.9,-1.0,30.00,South,169,5.0,5.0,28,0.00,,CLR,0.00,VWS V14.01,2013-02-18 19:14:00,
2013-02-18 14:19:00,28.1,-3.2,30.00,West,275,0.0,8.0,25,0.00,,CLR,0.00,VWS V14.01,2013-02-18 19:19:00,
2013-02-18 14:25:00,28.2,-3.1,30.00,North,0,2.0,14.0,25,0.00,,CLR,0.00,VWS V14.01,2013-02-18 19:25:00,
2013-02-18 14:30:00,28.2,-1.5,30.00,North,0,4.0,14.0,27,0.00,,CLR,0.00,VWS V14.01,2013-02-18 19:30:00,
2013-02-18 14:35:00,27.9,-4.2,30.00,WNW,284,2.0,8.0,24,0.00,,CLR,0.00,VWS V14.01,2013-02-18 19:35:00,
2013-02-18 14:40:00,27.9,-3.3,30.00,SSE,167,4.0,5.0,25,0.00,,CLR,0.00,VWS V14.01,2013-02-18 19:40:00,
2013-02-18 14:45:00,28.1,-3.2,30.00,NW,305,6.0,6.0,25,0.00,,CLR,0.00,VWS V14.01,2013-02-18 19:45:00,
2013-02-18 14:50:00,28.1,-3.2,30.00,West,272,1.0,11.0,25,0.00,,CLR,0.00,VWS V14.01,2013-02-18 19:50:00,
2013-02-18 14:55:00,27.9,-3.3,30.00,North,3,11.0,17.0,25,0.00,,CLR,0.00,VWS V14.01,2013-02-18 19:55:00,
2013-02-18 15:01:00,27.9,-4.2,30.01,WSW,256,2.0,4.0,24,0.00,,CLR,0.00,VWS V14.01,2013-02-18 20:01:00,
2013-02-18 15:06:00,28.1,-3.2,30.01,NW,308,2.0,7.0,25,0.00,,CLR,0.00,VWS V14.01,2013-02-18 20:06:00,
2013-02-18 15:11:00,28.1,-4.0,30.01,SW,227,3.0,10.0,24,0.00,,CLR,0.00,VWS V14.01,2013-02-18 20:11:00,
2013-02-18 15:16:00,28.1,-3.2,30.01,NNW,333,4.0,12.0,25,0.00,,CLR,0.00,VWS V14.01,2013-02-18 20:16:00,
2013-02-18 15:21:00,28.1,-3.2,30.01,WNW,294,2.0,7.0,25,0.00,,CLR,0.00,VWS V14.01,2013-02-18 20:21:00,
2013-02-18 15:27:00,28.2,-2.3,30.01,East,82,0.0,3.0,26,0.00,,CLR,0.00,VWS V14.01,2013-02-18 20:27:00,
2013-02-18 15:32:00,28.4,-2.1,30.01,West,268,3.0,3.0,26,0.00,,CLR,0.00,VWS V14.01,2013-02-18 20:32:00,
2013-02-18 15:37:00,28.2,-2.3,30.01,South,181,9.0,9.0,26,0.00,,CLR,0.00,VWS V14.01,2013-02-18 20:37:00,
2013-02-18 15:42:00,28.1,-2.4,30.01,NNW,329,3.0,4.0,26,0.00,,CLR,0.00,VWS V14.01,2013-02-18 20:42:00,
2013-02-18 15:47:00,27.8,-2.6,30.02,WNW,284,0.0,5.0,26,0.00,,CLR,0.00,VWS V14.01,2013-02-18 20:47:00,
2013-02-18 15:52:00,27.6,-2.8,30.02,NNW,336,7.0,10.0,26,0.00,,CLR,0.00,VWS V14.01,2013-02-18 20:52:00,
2013-02-18 15:58:00,27.5,-2.1,30.02,SW,226,4.0,6.0,27,0.00,,CLR,0.00,VWS V14.01,2013-02-18 20:58:00,
2013-02-18 16:03:00,27.2,-2.3,30.03,West,280,6.0,8.0,27,0.00,,CLR,0.00,VWS V14.01,2013-02-18 21:03:00,
2013-02-18 16:08:00,27.2,-3.1,30.03,West,277,3.0,12.0,26,0.00,,CLR,0.00,VWS V14.01,2013-02-18 21:08:00,
2013-02-18 16:13:00,27.0,-3.3,30.03,NW,319,4.0,13.0,26,0.00,,CLR,0.00,VWS V14.01,2013-02-18 21:13:00,
2013-02-18 16:18:00,26.9,-3.4,30.02,NW,306,12.0,12.0,26,0.00,,CLR,0.00,VWS V14.01,2013-02-18 21:18:00,
2013-02-18 16:23:00,26.9,-3.4,30.02,West,267,10.0,12.0,26,0.00,,CLR,0.00,VWS V14.01,2013-02-18 21:23:00,
2013-02-18 16:29:00,26.9,-3.4,30.02,South,179,5.0,12.0,26,0.00,,CLR,0.00,VWS V14.01,2013-02-18 21:29:00,
2013-02-18 16:34:00,26.7,-3.6,30.03,WNW,296,7.0,7.0,26,0.00,,CLR,0.00,VWS V14.01,2013-02-18 21:34:00,
2013-02-18 16:39:00,26.7,-3.6,30.03,WSW,256,5.0,12.0,26,0.00,,CLR,0.00,VWS V14.01,2013-02-18 21:39:00,
2013-02-18 16:44:00,26.7,-2.0,30.03,West,268,6.0,8.0,28,0.00,,CLR,0.00,VWS V14.01,2013-02-18 21:44:00,
2013-02-18 16:49:00,26.7,-2.8,30.03,WNW,282,2.0,10.0,27,0.00,,CLR,0.00,VWS V14.01,2013-02-18 21:49:00,
2013-02-18 16:54:00,26.6,-2.9,30.03,WSW,251,7.0,7.0,27,0.00,,CLR,0.00,VWS V14.01,2013-02-18 21:54:00,
2013-02-18 16:59:00,26.6,-3.7,30.03,NNW,329,7.0,12.0,26,0.00,,CLR,0.00,VWS V14.01,2013-02-18 21:59:00,
2013-02-18 17:04:00,26.4,-3.8,30.03,North,8,3.0,10.0,26,0.00,,CLR,0.00,VWS V14.01,2013-02-18 22:04:00,
2013-02-18 17:10:00,26.4,-3.0,30.03,NNW,332,0.0,8.0,27,0.00,,CLR,0.00,VWS V14.01,2013-02-18 22:10:00,
2013-02-18 17:15:00,26.3,-3.1,30.04,NNW,333,0.0,5.0,27,0.00,,CLR,0.00,VWS V14.01,2013-02-18 22:15:00,
2013-02-18 17:20:00,26.1,-3.3,30.04,North,357,6.0,11.0,27,0.00,,CLR,0.00,VWS V14.01,2013-02-18 22:20:00,
2013-02-18 17:25:00,26.1,-3.3,30.04,WSW,241,5.0,7.0,27,0.00,,CLR,0.00,VWS V14.01,2013-02-18 22:25:00,
2013-02-18 17:30:00,26.0,-2.6,30.05,South,179,2.0,2.0,28,0.00,,CLR,0.00,VWS V14.01,2013-02-18 22:30:00,
2013-02-18 17:35:00,26.0,-3.4,30.05,SW,219,5.0,10.0,27,0.00,,CLR,0.00,VWS V14.01,2013-02-18 22:35:00,
2013-02-18 17:41:00,25.8,-3.6,30.05,East,83,1.0,2.0,27,0.00,,CLR,0.00,VWS V14.01,2013-02-18 22:41:00,
2013-02-18 17:46:00,25.8,-3.6,30.06,SW,215,3.0,7.0,27,0.00,,CLR,0.00,VWS V14.01,2013-02-18 22:46:00,
2013-02-18 17:51:00,25.7,-3.6,30.06,WNW,291,3.0,3.0,27,0.00,,CLR,0.00,VWS V14.01,2013-02-18 22:51:00,
2013-02-18 17:56:00,25.6,-3.7,30.06,WNW,288,1.0,2.0,27,0.00,,CLR,0.00,VWS V14.01,2013-02-18 22:56:00,
2013-02-18 18:01:00,25.4,-3.1,30.06,SW,222,0.0,2.0,28,0.00,,CLR,0.00,VWS V14.01,2013-02-18 23:01:00,
2013-02-18 18:07:00,25.4,-3.1,30.06,South,174,0.0,1.0,28,0.00,,CLR,0.00,VWS V14.01,2013-02-18 23:07:00,
2013-02-18 18:12:00,25.3,-2.5,30.06,West,263,1.0,5.0,29,0.00,,CLR,0.00,VWS V14.01,2013-02-18 23:12:00,
2013-02-18 18:17:00,25.1,-3.4,30.06,WNW,299,1.0,2.0,28,0.00,,CLR,0.00,VWS V14.01,2013-02-18 23:17:00,
2013-02-18 18:23:00,25.0,-2.8,30.06,NW,312,1.0,3.0,29,0.00,,CLR,0.00,VWS V14.01,2013-02-18 23:23:00,
2013-02-18 18:28:00,25.0,-2.8,30.06,WSW,251,0.0,5.0,29,0.00,,CLR,0.00,VWS V14.01,2013-02-18 23:28:00,
2013-02-18 18:33:00,25.0,-2.8,30.07,SSW,213,2.0,10.0,29,0.00,,CLR,0.00,VWS V14.01,2013-02-18 23:33:00,
2013-02-18 18:39:00,24.8,-2.9,30.07,SSW,206,2.0,2.0,29,0.00,,CLR,0.00,VWS V14.01,2013-02-18 23:39:00,
2013-02-18 18:44:00,24.8,-2.2,30.07,SW,229,0.0,2.0,30,0.00,,CLR,0.00,VWS V14.01,2013-02-18 23:44:00,
2013-02-18 18:49:00,24.7,-1.6,30.06,North,353,0.0,3.0,31,0.00,,CLR,0.00,VWS V14.01,2013-02-18 23:49:00,
2013-02-18 18:54:00,24.7,-1.6,30.06,SE,136,0.0,5.0,31,0.00,,CLR,0.00,VWS V14.01,2013-02-18 23:54:00,
2013-02-18 18:59:00,24.5,-1.8,30.06,East,97,1.0,2.0,31,0.00,,CLR,0.00,VWS V14.01,2013-02-18 23:59:00,
2013-02-18 19:04:00,24.4,-1.2,30.08,South,169,1.0,5.0,32,0.00,,CLR,0.00,VWS V14.01,2013-02-19 00:04:00,
2013-02-18 19:09:00,24.4,-1.9,30.08,SSW,203,0.0,2.0,31,0.00,,CLR,0.00,VWS V14.01,2013-02-19 00:09:00,
2013-02-18 19:14:00,24.4,-1.9,30.08,WSW,237,2.0,3.0,31,0.00,,CLR,0.00,VWS V14.01,2013-02-19 00:14:00,
2013-02-18 19:20:00,24.2,-1.4,30.08,SSW,202,1.0,2.0,32,0.00,,CLR,0.00,VWS V14.01,2013-02-19 00:20:00,
2013-02-18 19:25:00,24.2,-1.4,30.08,SSW,202,0.0,0.0,32,0.00,,CLR,0.00,VWS V14.01,2013-02-19 00:25:00,
2013-02-18 19:30:00,24.1,-1.5,30.07,SSW,202,0.0,0.0,32,0.00,,CLR,0.00,VWS V14.01,2013-02-19 00:30:00,
2013-02-18 19:35:00,23.9,-1.0,30.07,SSW,202,0.0,0.0,33,0.00,,CLR,0.00,VWS V14.01,2013-02-19 00:35:00,
2013-02-18 19:40:00,23.8,-0.5,30.07,SSW,202,0.0,0.0,34,0.00,,CLR,0.00,VWS V14.01,2013-02-19 00:40:00,
2013-02-18 19:46:00,23.6,-0.6,30.08,SSW,202,0.0,0.0,34,0.00,,CLR,0.00,VWS V14.01,2013-02-19 00:46:00,
2013-02-18 19:51:00,23.3,-0.9,30.08,SE,133,1.0,2.0,34,0.00,,CLR,0.00,VWS V14.01,2013-02-19 00:51:00,
2013-02-18 19:56:00,23.2,-0.4,30.08,SE,136,0.0,2.0,35,0.00,,CLR,0.00,VWS V14.01,2013-02-19 00:56:00,
2013-02-18 20:01:00,23.0,-0.6,30.08,SE,136,0.0,0.0,35,0.00,,CLR,0.00,VWS V14.01,2013-02-19 01:01:00,
2013-02-18 20:06:00,23.0,-1.2,30.08,West,264,2.0,2.0,34,0.00,,CLR,0.00,VWS V14.01,2013-02-19 01:06:00,
2013-02-18 20:12:00,23.0,-0.6,30.08,North,4,0.0,2.0,35,0.00,,CLR,0.00,VWS V14.01,2013-02-19 01:12:00,
2013-02-18 20:17:00,22.9,-0.6,30.08,NE,35,0.0,1.0,35,0.00,,CLR,0.00,VWS V14.01,2013-02-19 01:17:00,
2013-02-18 20:22:00,22.9,0.5,30.08,West,267,0.0,3.0,37,0.00,,CLR,0.00,VWS V14.01,2013-02-19 01:22:00,
2013-02-18 20:27:00,22.9,-0.1,30.08,SW,232,0.0,3.0,36,0.00,,CLR,0.00,VWS V14.01,2013-02-19 01:27:00,
2013-02-18 20:32:00,22.9,-0.1,30.08,WSW,239,0.0,1.0,36,0.00,,CLR,0.00,VWS V14.01,2013-02-19 01:32:00,
2013-02-18 20:37:00,22.9,-0.1,30.08,WSW,239,0.0,0.0,36,0.00,,CLR,0.00,VWS V14.01,2013-02-19 01:37:00,
2013-02-18 20:43:00,22.9,-0.1,30.08,WSW,241,2.0,2.0,36,0.00,,CLR,0.00,VWS V14.01,2013-02-19 01:43:00,
2013-02-18 20:48:00,22.9,-0.1,30.08,WSW,241,0.0,0.0,36,0.00,,CLR,0.00,VWS V14.01,2013-02-19 01:48:00,
2013-02-18 20:53:00,22.9,0.5,30.08,WSW,241,0.0,0.0,37,0.00,,CLR,0.00,VWS V14.01,2013-02-19 01:53:00,
2013-02-18 20:58:00,22.7,0.3,30.08,WSW,241,1.0,1.0,37,0.00,,CLR,0.00,VWS V14.01,2013-02-19 01:58:00,
2013-02-18 21:03:00,22.7,0.3,30.08,WSW,241,0.0,0.0,37,0.00,,CLR,0.00,VWS V14.01,2013-02-19 02:03:00,
2013-02-18 21:09:00,22.5,0.2,30.08,WSW,241,0.0,1.0,37,0.00,,CLR,0.00,VWS V14.01,2013-02-19 02:09:00,
2013-02-18 21:14:00,22.4,1.2,30.08,WSW,241,0.0,2.0,39,0.00,,CLR,0.00,VWS V14.01,2013-02-19 02:14:00,
2013-02-18 21:19:00,22.2,1.0,30.08,WSW,241,0.0,0.0,39,0.00,,CLR,0.00,VWS V14.01,2013-02-19 02:19:00,
2013-02-18 21:25:00,22.1,0.9,30.08,WSW,241,0.0,0.0,39,0.00,,CLR,0.00,VWS V14.01,2013-02-19 02:25:00,
2013-02-18 21:30:00,22.1,0.9,30.09,WSW,241,0.0,0.0,39,0.00,,CLR,0.00,VWS V14.01,2013-02-19 02:30:00,
2013-02-18 21:35:00,21.9,1.3,30.09,WSW,241,0.0,0.0,40,0.00,,CLR,0.00,VWS V14.01,2013-02-19 02:35:00,
2013-02-18 21:40:00,21.8,1.2,30.09,WSW,241,0.0,0.0,40,0.00,,CLR,0.00,VWS V14.01,2013-02-19 02:40:00,
2013-02-18 21:45:00,21.6,1.5,30.09,WSW,241,0.0,0.0,41,0.00,,CLR,0.00,VWS V14.01,2013-02-19 02:45:00,
2013-02-18 21:51:00,21.4,1.9,30.09,WSW,241,0.0,0.0,42,0.00,,CLR,0.00,VWS V14.01,2013-02-19 02:51:00,
2013-02-18 21:56:00,21.3,2.3,30.09,WSW,241,0.0,0.0,43,0.00,,CLR,0.00,VWS V14.01,2013-02-19 02:56:00,
2013-02-18 22:01:00,21.1,2.1,30.10,WSW,241,0.0,1.0,43,0.00,,CLR,0.00,VWS V14.01,2013-02-19 03:01:00,
2013-02-18 22:06:00,21.1,2.1,30.10,WSW,241,0.0,0.0,43,0.00,,CLR,0.00,VWS V14.01,2013-02-19 03:06:00,
2013-02-18 22:12:00,21.0,3.5,30.10,WSW,241,0.0,0.0,46,0.00,,CLR,0.00,VWS V14.01,2013-02-19 03:12:00,
2013-02-18 22:17:00,20.8,3.3,30.09,WSW,241,0.0,0.0,46,0.00,,CLR,0.00,VWS V14.01,2013-02-19 03:17:00,
2013-02-18 22:22:00,20.6,3.1,30.09,WSW,241,0.0,0.0,46,0.00,,CLR,0.00,VWS V14.01,2013-02-19 03:22:00,
2013-02-18 22:27:00,20.5,3.0,30.09,WSW,241,0.0,0.0,46,0.00,,CLR,0.00,VWS V14.01,2013-02-19 03:27:00,
2013-02-18 22:33:00,20.3,2.8,30.09,WSW,241,0.0,0.0,46,0.00,,CLR,0.00,VWS V14.01,2013-02-19 03:33:00,
2013-02-18 22:38:00,20.2,2.7,30.09,WSW,241,0.0,0.0,46,0.00,,CLR,0.00,VWS V14.01,2013-02-19 03:38:00,
2013-02-18 22:43:00,20.0,3.5,30.09,WSW,241,0.0,0.0,48,0.00,,CLR,0.00,VWS V14.01,2013-02-19 03:43:00,
2013-02-18 22:48:00,19.9,4.3,30.09,WSW,241,1.0,1.0,50,0.00,,CLR,0.00,VWS V14.01,2013-02-19 03:48:00,
2013-02-18 22:53:00,19.7,4.1,30.09,WSW,241,0.0,0.0,50,0.00,,CLR,0.00,VWS V14.01,2013-02-19 03:53:00,
2013-02-18 22:59:00,19.5,4.3,30.09,WSW,241,0.0,0.0,51,0.00,,CLR,0.00,VWS V14.01,2013-02-19 03:59:00,
2013-02-18 23:04:00,19.4,4.2,30.09,WSW,241,0.0,0.0,51,0.00,,CLR,0.00,VWS V14.01,2013-02-19 04:04:00,
2013-02-18 23:09:00,19.2,4.1,30.09,WSW,241,0.0,0.0,51,0.00,,BKN110,0.00,VWS V14.01,2013-02-19 04:09:00,
2013-02-18 23:15:00,19.1,4.0,30.09,WSW,241,0.0,0.0,51,0.00,,BKN110,0.00,VWS V14.01,2013-02-19 04:15:00,
2013-02-18 23:20:00,18.9,3.8,30.09,WSW,241,0.0,0.0,51,0.00,,BKN110,0.00,VWS V14.01,2013-02-19 04:20:00,
2013-02-18 23:26:00,18.8,4.1,30.09,WSW,241,0.0,0.0,52,0.00,,BKN110,0.00,VWS V14.01,2013-02-19 04:26:00,
2013-02-18 23:31:00,18.6,4.3,30.09,WSW,241,0.0,0.0,53,0.00,,BKN110,0.00,VWS V14.01,2013-02-19 04:31:00,
2013-02-18 23:36:00,18.6,4.3,30.09,WSW,241,0.0,1.0,53,0.00,,BKN110,0.00,VWS V14.01,2013-02-19 04:36:00,
2013-02-18 23:41:00,18.4,4.1,30.09,WSW,241,0.0,0.0,53,0.00,,BKN110,0.00,VWS V14.01,2013-02-19 04:41:00,
2013-02-18 23:46:00,18.3,4.4,30.09,WSW,241,0.0,0.0,54,0.00,,BKN110,0.00,VWS V14.01,2013-02-19 04:46:00,
2013-02-18 23:51:00,18.3,4.4,30.09,WSW,241,1.0,2.0,54,0.00,,BKN110,0.00,VWS V14.01,2013-02-19 04:51:00,
2013-02-18 23:57:00,18.1,4.3,30.09,WSW,241,1.0,2.0,54,0.00,,CLR,0.00,VWS V14.01,2013-02-19 04:57:00,